Time;durP1;ratioP1;P1;durP2;ratioP2;P2;SDS_P1;SDS_P2;PMS_P1;PMS_P2;Temp;Humidity;BMP_temperature;BMP_pressure;BME280_temperature;BME280_humidity;BME280_pressure;Samples;Min_cycle;Max_cycle;Signal;HPM_P1;HPM_P2
2020/12/18 00:02:03;;;;;;;0.33;0.30;;;5.50;99.90;;;;;;5070746;28;20221;-84
2020/12/18 00:04:29;;;;;;;0.20;0.20;;;5.40;99.90;;;;;;5073457;28;20255;-84
2020/12/18 00:06:54;;;;;;;0.10;0.10;;;5.50;99.90;;;;;;5071166;28;20188;-84
2020/12/18 00:09:20;;;;;;;1.07;0.83;;;5.30;99.90;;;;;;5071757;28;20194;-85
2020/12/18 00:11:45;;;;;;;0.30;0.30;;;5.20;99.90;;;;;;5067577;28;20214;-85
2020/12/18 00:14:11;;;;;;;0.10;0.10;;;5.00;99.90;;;;;;5072328;28;20203;-85
2020/12/18 00:16:38;;;;;;;0.00;0.00;;;4.80;99.90;;;;;;5071470;28;20193;-85
2020/12/18 00:19:04;;;;;;;0.20;0.20;;;4.70;99.90;;;;;;5070546;28;20574;-84
2020/12/18 00:21:30;;;;;;;0.10;0.10;;;4.60;99.90;;;;;;5072632;28;20205;-85
2020/12/18 00:23:55;;;;;;;0.10;0.10;;;4.60;99.90;;;;;;5069315;28;20198;-84
2020/12/18 00:26:21;;;;;;;1.13;0.53;;;4.60;99.90;;;;;;5085803;22;20691;-84
2020/12/18 00:28:47;;;;;;;0.10;0.10;;;4.70;99.90;;;;;;5056487;28;20220;-84
2020/12/18 00:31:13;;;;;;;0.33;0.33;;;4.70;99.90;;;;;;5049257;28;20186;-84
2020/12/18 00:33:39;;;;;;;0.33;0.33;;;4.90;99.90;;;;;;5056617;28;20219;-83
2020/12/18 00:36:05;;;;;;;0.30;0.30;;;5.10;99.90;;;;;;5056385;28;20205;-85
2020/12/18 00:38:31;;;;;;;0.47;0.33;;;5.10;99.90;;;;;;5074142;28;20249;-84
2020/12/18 00:40:56;;;;;;;0.20;0.20;;;5.20;99.90;;;;;;5066343;28;20184;-84
2020/12/18 00:43:22;;;;;;;0.10;0.10;;;5.20;99.90;;;;;;5072496;28;20188;-83
2020/12/18 00:45:48;;;;;;;0.20;0.20;;;5.20;99.90;;;;;;5072799;28;20666;-84
2020/12/18 00:48:13;;;;;;;0.10;0.10;;;5.20;99.90;;;;;;5072788;28;20566;-84
2020/12/18 00:50:39;;;;;;;0.20;0.20;;;5.10;99.90;;;;;;5072923;28;20199;-84
2020/12/18 00:53:05;;;;;;;0.87;0.47;;;5.00;99.90;;;;;;5070927;28;20608;-84
2020/12/18 00:55:31;;;;;;;0.10;0.10;;;4.80;99.90;;;;;;5063796;28;20187;-86
2020/12/18 00:57:57;;;;;;;0.73;0.40;;;4.70;99.90;;;;;;5073964;28;20581;-84
2020/12/18 01:00:22;;;;;;;0.10;0.10;;;4.70;99.90;;;;;;5070326;28;20183;-85
2020/12/18 01:02:48;;;;;;;0.10;0.10;;;4.70;99.90;;;;;;5072651;28;20181;-84
2020/12/18 01:05:14;;;;;;;0.17;0.17;;;4.70;99.90;;;;;;5072267;28;20183;-84
2020/12/18 01:07:39;;;;;;;0.10;0.10;;;4.90;99.90;;;;;;5073909;28;20207;-84
2020/12/18 01:10:05;;;;;;;0.40;0.37;;;4.80;99.90;;;;;;5073622;28;20176;-84
2020/12/18 01:12:31;;;;;;;0.20;0.20;;;4.90;99.90;;;;;;5072359;28;20176;-84
2020/12/18 01:14:56;;;;;;;0.00;0.00;;;5.00;99.90;;;;;;5063575;28;20233;-84
2020/12/18 01:17:22;;;;;;;0.37;0.37;;;5.10;99.90;;;;;;5068148;28;20292;-84
2020/12/18 01:19:47;;;;;;;0.97;0.83;;;5.20;99.90;;;;;;5067005;28;20562;-84
2020/12/18 01:22:13;;;;;;;0.20;0.20;;;5.20;99.90;;;;;;5073533;28;20185;-86
2020/12/18 01:24:39;;;;;;;0.27;0.27;;;5.20;99.90;;;;;;5072114;28;20261;-86
2020/12/18 01:27:05;;;;;;;0.10;0.10;;;5.30;99.90;;;;;;5067253;28;20248;-83
2020/12/18 01:29:30;;;;;;;0.57;0.57;;;5.10;99.90;;;;;;5071533;28;20211;-85
2020/12/18 01:31:56;;;;;;;0.27;0.23;;;5.10;99.90;;;;;;5072124;28;20172;-84
2020/12/18 01:34:22;;;;;;;0.33;0.23;;;5.00;99.90;;;;;;5071820;28;20182;-85
2020/12/18 01:36:47;;;;;;;0.40;0.40;;;5.00;99.90;;;;;;5059326;28;20228;-85
2020/12/18 01:39:13;;;;;;;0.77;0.47;;;5.10;99.90;;;;;;5069238;28;20172;-85
2020/12/18 01:41:38;;;;;;;0.10;0.10;;;5.00;99.90;;;;;;5061688;28;20228;-85
2020/12/18 01:44:04;;;;;;;0.10;0.10;;;5.20;99.90;;;;;;5065618;28;20675;-85
2020/12/18 01:46:30;;;;;;;0.10;0.10;;;5.30;99.90;;;;;;5068620;28;20196;-84
2020/12/18 01:48:57;;;;;;;0.10;0.10;;;5.40;99.90;;;;;;5063179;28;20288;-84
2020/12/18 01:51:23;;;;;;;0.50;0.50;;;5.50;99.90;;;;;;5065815;28;20234;-85
2020/12/18 01:53:51;;;;;;;0.37;0.10;;;5.70;99.90;;;;;;5071542;28;20189;-85
2020/12/18 01:56:16;;;;;;;0.50;0.40;;;5.70;99.90;;;;;;5071861;28;20202;-84
2020/12/18 01:58:44;;;;;;;0.30;0.30;;;5.90;99.90;;;;;;5071752;28;20178;-84
2020/12/18 02:01:10;;;;;;;0.10;0.10;;;5.90;99.90;;;;;;5070521;28;20253;-85
2020/12/18 02:03:37;;;;;;;0.20;0.20;;;5.80;99.90;;;;;;5065773;28;20180;-84
2020/12/18 02:06:09;;;;;;;0.43;0.20;;;5.80;99.90;;;;;;5068853;28;20180;-83
2020/12/18 02:08:35;;;;;;;0.13;0.13;;;5.90;99.90;;;;;;5068220;28;20227;-84
2020/12/18 02:11:01;;;;;;;0.00;0.00;;;5.90;99.90;;;;;;5070062;28;20637;-83
2020/12/18 02:13:27;;;;;;;0.30;0.30;;;6.00;99.90;;;;;;5071366;28;20172;-85
2020/12/18 02:15:54;;;;;;;0.20;0.20;;;5.80;99.90;;;;;;5070115;28;20193;-84
2020/12/18 02:18:23;;;;;;;0.50;0.47;;;5.50;99.90;;;;;;5080868;28;20805;-86
2020/12/18 02:20:50;;;;;;;0.10;0.10;;;5.40;99.90;;;;;;5068694;28;20199;-83
2020/12/18 02:23:15;;;;;;;0.10;0.10;;;5.20;99.90;;;;;;5059141;28;20181;-84
2020/12/18 02:25:41;;;;;;;0.40;0.20;;;5.20;99.90;;;;;;5072822;28;20709;-84
2020/12/18 02:28:09;;;;;;;0.10;0.10;;;5.10;99.90;;;;;;5069709;28;20222;-84
2020/12/18 02:30:35;;;;;;;0.20;0.20;;;5.10;99.90;;;;;;5063045;28;20186;-85
2020/12/18 02:33:07;;;;;;;0.13;0.13;;;5.00;99.90;;;;;;5071020;28;20180;-83
2020/12/18 02:35:33;;;;;;;0.33;0.33;;;5.10;99.90;;;;;;5070859;28;20180;-84
2020/12/18 02:37:59;;;;;;;0.60;0.60;;;5.10;99.90;;;;;;5068429;28;20207;-86
2020/12/18 02:40:25;;;;;;;0.37;0.37;;;5.10;99.90;;;;;;5070820;28;20230;-85
2020/12/18 02:42:51;;;;;;;0.50;0.20;;;5.10;99.90;;;;;;5072957;28;20177;-85
2020/12/18 02:45:17;;;;;;;0.63;0.53;;;4.90;99.90;;;;;;5072370;28;20599;-84
2020/12/18 02:47:43;;;;;;;3.30;1.20;;;4.70;99.90;;;;;;5069251;28;20825;-84
2020/12/18 02:50:08;;;;;;;0.47;0.10;;;4.60;99.90;;;;;;5070743;28;20175;-84
2020/12/18 02:52:34;;;;;;;0.10;0.10;;;4.70;99.90;;;;;;5067505;28;20557;-84
2020/12/18 02:54:59;;;;;;;0.17;0.17;;;4.70;99.90;;;;;;5071182;28;20678;-85
2020/12/18 02:57:25;;;;;;;0.17;0.17;;;4.80;99.90;;;;;;5071982;28;20231;-84
2020/12/18 02:59:50;;;;;;;0.10;0.10;;;4.80;99.90;;;;;;5070772;28;20192;-84
2020/12/18 03:02:16;;;;;;;0.13;0.13;;;4.80;99.90;;;;;;5067522;28;20177;-84
2020/12/18 03:04:42;;;;;;;0.10;0.10;;;4.90;99.90;;;;;;5070386;28;20277;-84
2020/12/18 03:07:07;;;;;;;0.20;0.20;;;5.00;99.90;;;;;;5068502;28;20238;-85
2020/12/18 03:09:33;;;;;;;0.20;0.20;;;4.90;99.90;;;;;;5069792;28;20251;-85
2020/12/18 03:11:58;;;;;;;0.10;0.10;;;5.00;99.90;;;;;;5068641;28;20271;-84
2020/12/18 03:14:24;;;;;;;0.30;0.30;;;5.10;99.90;;;;;;5070715;28;20177;-86
2020/12/18 03:16:50;;;;;;;0.20;0.20;;;5.30;99.90;;;;;;5070568;28;20236;-84
2020/12/18 03:19:15;;;;;;;0.10;0.10;;;5.30;99.90;;;;;;5071313;28;20191;-84
2020/12/18 03:21:41;;;;;;;0.10;0.10;;;5.40;99.90;;;;;;5070367;28;20185;-84
2020/12/18 03:24:06;;;;;;;0.30;0.30;;;5.50;99.90;;;;;;5070497;28;20188;-85
2020/12/18 03:26:32;;;;;;;0.43;0.40;;;5.50;99.90;;;;;;5071035;28;20273;-84
2020/12/18 03:28:57;;;;;;;0.10;0.10;;;5.50;99.90;;;;;;5071568;28;20574;-84
2020/12/18 03:31:23;;;;;;;1.30;0.50;;;5.30;99.90;;;;;;5074069;28;20649;-87
2020/12/18 03:33:48;;;;;;;0.10;0.10;;;5.20;99.90;;;;;;5069696;28;20181;-85
2020/12/18 03:36:14;;;;;;;0.17;0.17;;;5.10;99.90;;;;;;5065248;28;20287;-84
2020/12/18 03:38:39;;;;;;;0.20;0.20;;;5.10;99.90;;;;;;5072261;28;20191;-84
2020/12/18 03:41:08;;;;;;;0.87;0.70;;;5.00;99.90;;;;;;5074724;28;20183;-84
2020/12/18 03:43:34;;;;;;;0.33;0.33;;;5.00;99.90;;;;;;5074770;28;20650;-84
2020/12/18 03:46:00;;;;;;;0.63;0.40;;;4.90;99.90;;;;;;5073629;28;20203;-84
2020/12/18 03:48:27;;;;;;;0.20;0.20;;;5.10;99.90;;;;;;5072453;28;20676;-86
2020/12/18 03:50:52;;;;;;;1.43;0.60;;;5.20;99.90;;;;;;5067569;28;20554;-85
2020/12/18 03:53:19;;;;;;;0.10;0.10;;;5.40;99.90;;;;;;5071534;28;20275;-85
2020/12/18 03:55:44;;;;;;;0.10;0.10;;;5.50;99.90;;;;;;5073678;28;20260;-84
2020/12/18 03:58:10;;;;;;;0.73;0.20;;;5.60;99.90;;;;;;5073288;28;20283;-85
2020/12/18 04:00:37;;;;;;;0.83;0.20;;;5.70;99.90;;;;;;5073277;28;20235;-84
2020/12/18 04:03:02;;;;;;;0.20;0.20;;;5.70;99.90;;;;;;5073301;28;20656;-87
2020/12/18 04:05:28;;;;;;;0.40;0.40;;;5.50;99.90;;;;;;5073007;28;20181;-84
2020/12/18 04:07:53;;;;;;;0.40;0.40;;;5.60;99.90;;;;;;5072831;28;20287;-84
2020/12/18 04:10:19;;;;;;;0.17;0.17;;;5.60;99.90;;;;;;5074292;28;20182;-84
2020/12/18 04:12:45;;;;;;;0.30;0.30;;;5.10;99.90;;;;;;5073361;28;20179;-84
2020/12/18 04:15:10;;;;;;;0.87;0.87;;;4.90;99.90;;;;;;5073066;28;20520;-84
2020/12/18 04:17:36;;;;;;;0.63;0.40;;;4.70;99.90;;;;;;5074028;28;20567;-84
2020/12/18 04:20:01;;;;;;;0.07;0.07;;;4.70;99.90;;;;;;5073977;28;20191;-84
2020/12/18 04:22:29;;;;;;;0.47;0.40;;;4.70;99.90;;;;;;5072789;28;20648;-84
2020/12/18 04:24:55;;;;;;;0.40;0.40;;;4.70;99.90;;;;;;5073224;28;20187;-85
2020/12/18 04:27:20;;;;;;;0.50;0.50;;;4.60;99.90;;;;;;5068730;28;20300;-84
2020/12/18 04:29:46;;;;;;;0.73;0.30;;;4.70;99.90;;;;;;5063599;28;20969;-84
2020/12/18 04:32:12;;;;;;;0.20;0.20;;;4.70;99.90;;;;;;5072922;28;20191;-84
2020/12/18 04:34:37;;;;;;;0.10;0.10;;;5.00;99.90;;;;;;5072943;28;20184;-85
2020/12/18 04:37:03;;;;;;;4.03;0.33;;;5.20;99.90;;;;;;5072063;28;20274;-83
2020/12/18 04:39:29;;;;;;;0.60;0.40;;;5.10;99.90;;;;;;5070628;28;20195;-88
2020/12/18 04:42:06;;;;;;;0.00;0.00;;;5.30;99.90;;;;;;5069139;28;20191;-84
2020/12/18 04:44:32;;;;;;;0.10;0.10;;;5.30;99.90;;;;;;5072368;28;20184;-84
2020/12/18 04:46:59;;;;;;;0.93;0.47;;;5.40;99.90;;;;;;5068543;28;20204;-85
2020/12/18 04:49:29;;;;;;;0.23;0.23;;;5.50;99.90;;;;;;5056205;28;20201;-84
2020/12/18 04:51:59;;;;;;;0.20;0.20;;;5.80;99.90;;;;;;5059006;28;20190;-86
2020/12/18 04:54:27;;;;;;;0.23;0.23;;;5.90;99.90;;;;;;5073542;28;20182;-84
2020/12/18 04:56:55;;;;;;;0.10;0.10;;;5.90;99.90;;;;;;5072163;28;20575;-86
2020/12/18 04:59:24;;;;;;;0.20;0.20;;;6.00;99.90;;;;;;5061603;28;20194;-86
2020/12/18 05:01:56;;;;;;;0.50;0.50;;;5.90;99.90;;;;;;5072124;28;20187;-85
2020/12/18 05:04:22;;;;;;;0.57;0.30;;;5.80;99.90;;;;;;5073964;28;20555;-84
2020/12/18 05:06:48;;;;;;;0.37;0.37;;;5.70;99.90;;;;;;5072166;28;20232;-84
2020/12/18 05:09:14;;;;;;;0.20;0.20;;;5.60;99.90;;;;;;5068973;28;20247;-84
2020/12/18 05:11:39;;;;;;;0.30;0.30;;;5.50;99.90;;;;;;5072367;28;20178;-85
2020/12/18 05:14:05;;;;;;;0.10;0.10;;;5.60;99.90;;;;;;5072052;28;20278;-85
2020/12/18 05:16:30;;;;;;;0.63;0.43;;;5.50;99.90;;;;;;5066455;28;20211;-84
2020/12/18 05:19:06;;;;;;;0.20;0.20;;;5.40;99.90;;;;;;5073817;28;20177;-84
2020/12/18 05:21:35;;;;;;;0.57;0.53;;;5.20;99.90;;;;;;5072751;28;20286;-85
2020/12/18 05:24:00;;;;;;;0.97;0.23;;;5.30;99.90;;;;;;5072607;28;20173;-85
2020/12/18 05:26:28;;;;;;;0.30;0.30;;;5.50;99.90;;;;;;5072386;28;20212;-85
2020/12/18 05:29:09;;;;;;;0.30;0.30;;;5.70;99.90;;;;;;5071010;28;20203;-85
2020/12/18 05:31:35;;;;;;;0.30;0.30;;;5.80;99.90;;;;;;5070754;28;20165;-85
2020/12/18 05:34:02;;;;;;;0.20;0.20;;;6.00;99.90;;;;;;5071664;28;20333;-84
2020/12/18 05:36:28;;;;;;;0.90;0.90;;;6.10;99.90;;;;;;5070950;28;20287;-85
2020/12/18 05:38:54;;;;;;;0.70;0.70;;;6.20;99.90;;;;;;5068483;28;20214;-85
2020/12/18 05:41:24;;;;;;;0.00;0.00;;;6.30;99.90;;;;;;5071266;28;20645;-84
2020/12/18 05:43:50;;;;;;;0.30;0.30;;;6.40;99.90;;;;;;5068690;28;20177;-85
2020/12/18 05:46:28;;;;;;;0.10;0.10;;;6.40;99.90;;;;;;5072213;28;20231;-86
2020/12/18 05:48:59;;;;;;;1.40;1.27;;;6.40;99.90;;;;;;5069168;28;20193;-87
2020/12/18 05:51:45;;;;;;;0.53;0.53;;;6.40;99.90;;;;;;5070495;28;20181;-86
2020/12/18 05:54:34;;;;;;;4.90;0.30;;;6.50;99.90;;;;;;5069705;28;20189;-86
2020/12/18 05:57:09;;;;;;;0.20;0.20;;;6.50;99.90;;;;;;5057743;28;20250;-87
2020/12/18 05:59:44;;;;;;;0.33;0.33;;;6.40;99.90;;;;;;5058227;28;20176;-84
2020/12/18 06:02:17;;;;;;;0.43;0.30;;;6.30;99.90;;;;;;5064046;28;20190;-85
2020/12/18 06:04:44;;;;;;;0.40;0.40;;;6.00;99.90;;;;;;5072243;28;20169;-86
2020/12/18 06:07:10;;;;;;;0.40;0.40;;;5.70;99.90;;;;;;5066832;28;20206;-86
2020/12/18 06:09:36;;;;;;;0.43;0.43;;;5.70;99.90;;;;;;5064755;28;20670;-86
2020/12/18 06:12:07;;;;;;;1.10;0.60;;;5.70;99.90;;;;;;5062473;28;20285;-88
2020/12/18 06:14:33;;;;;;;0.67;0.50;;;5.60;99.90;;;;;;5060558;28;20177;-85
2020/12/18 06:17:09;;;;;;;0.30;0.30;;;5.40;99.90;;;;;;5068463;28;20222;-83
2020/12/18 06:19:40;;;;;;;0.20;0.20;;;5.40;99.90;;;;;;5057923;28;20180;-86
2020/12/18 06:22:10;;;;;;;0.30;0.30;;;5.60;99.90;;;;;;5071143;28;20186;-84
2020/12/18 06:24:46;;;;;;;0.20;0.20;;;5.50;99.90;;;;;;5070945;28;20656;-84
2020/12/18 06:27:14;;;;;;;0.20;0.20;;;5.30;99.90;;;;;;5068666;28;20280;-84
2020/12/18 06:29:40;;;;;;;0.40;0.40;;;5.40;99.90;;;;;;5071914;28;20556;-85
2020/12/18 06:32:23;;;;;;;0.20;0.20;;;5.50;99.90;;;;;;5070262;28;20691;-86
2020/12/18 06:34:52;;;;;;;0.20;0.20;;;5.80;99.90;;;;;;5071823;28;20267;-85
2020/12/18 06:37:32;;;;;;;0.10;0.10;;;6.00;99.90;;;;;;5052718;28;20203;-82
2020/12/18 06:39:58;;;;;;;0.20;0.20;;;6.10;99.90;;;;;;5066207;28;20188;-84
2020/12/18 06:42:26;;;;;;;0.30;0.23;;;6.20;99.90;;;;;;5069280;28;20297;-83
2020/12/18 06:44:53;;;;;;;0.40;0.40;;;6.30;99.90;;;;;;5072289;28;20181;-83
2020/12/18 06:47:23;;;;;;;0.20;0.20;;;6.30;99.90;;;;;;5070481;28;20680;-83
2020/12/18 06:49:55;;;;;;;0.13;0.13;;;6.30;99.90;;;;;;5064391;28;20263;-83
2020/12/18 06:52:40;;;;;;;2.10;0.43;;;6.40;99.90;;;;;;5070077;28;20242;-86
2020/12/18 06:55:25;;;;;;;0.83;0.30;;;6.50;99.90;;;;;;5066850;28;20184;-84
2020/12/18 06:58:09;;;;;;;0.30;0.30;;;6.50;99.90;;;;;;5070402;28;20683;-83
2020/12/18 07:00:47;;;;;;;0.67;0.60;;;6.50;99.90;;;;;;5070169;28;20179;-85
2020/12/18 07:03:42;;;;;;;0.50;0.23;;;6.50;99.90;;;;;;5057434;28;20185;-84
2020/12/18 07:06:21;;;;;;;0.20;0.20;;;6.50;99.90;;;;;;5074139;28;20279;-84
2020/12/18 07:08:47;;;;;;;0.53;0.47;;;6.50;99.90;;;;;;5070359;28;20207;-84
2020/12/18 07:11:14;;;;;;;0.10;0.10;;;6.60;99.90;;;;;;5073534;28;20183;-84
2020/12/18 07:13:42;;;;;;;0.20;0.20;;;6.50;99.90;;;;;;5073224;28;20179;-84
2020/12/18 07:16:12;;;;;;;0.87;0.37;;;6.40;99.90;;;;;;5074087;28;20179;-84
2020/12/18 07:19:25;;;;;;;0.40;0.40;;;6.30;99.90;;;;;;5078719;28;20315;-85
2020/12/18 07:21:50;;;;;;;1.40;0.20;;;5.90;99.90;;;;;;5092210;28;20314;-84
2020/12/18 07:24:16;;;;;;;0.40;0.33;;;5.80;99.90;;;;;;5111831;28;20222;-83
2020/12/18 07:26:41;;;;;;;0.30;0.30;;;5.70;99.90;;;;;;5108065;28;20254;-84
2020/12/18 07:29:31;;;;;;;0.33;0.33;;;5.60;99.90;;;;;;5075022;28;20204;-85
2020/12/18 07:31:57;;;;;;;0.50;0.30;;;5.50;99.90;;;;;;5072237;28;20548;-87
2020/12/18 07:34:22;;;;;;;1.20;1.20;;;5.50;99.90;;;;;;5066915;28;20182;-84
2020/12/18 07:36:48;;;;;;;4.83;0.43;;;5.60;99.90;;;;;;5073091;28;20200;-84
2020/12/18 07:39:13;;;;;;;1.30;0.77;;;5.50;99.90;;;;;;5075339;28;20184;-85
2020/12/18 07:41:39;;;;;;;1.13;1.03;;;5.50;99.90;;;;;;5074475;28;20223;-84
2020/12/18 07:44:09;;;;;;;1.00;0.73;;;5.70;99.90;;;;;;5073106;28;20244;-84
2020/12/18 07:46:35;;;;;;;2.33;0.53;;;5.80;99.90;;;;;;5073648;28;20208;-83
2020/12/18 07:49:30;;;;;;;0.43;0.43;;;5.70;99.90;;;;;;5073665;28;20204;-84
2020/12/18 07:51:56;;;;;;;0.30;0.30;;;5.70;99.90;;;;;;5066362;28;20183;-84
2020/12/18 07:54:22;;;;;;;0.30;0.30;;;5.70;99.90;;;;;;5066719;28;20195;-86
2020/12/18 07:56:48;;;;;;;0.30;0.30;;;5.90;99.90;;;;;;5055170;28;20586;-85
2020/12/18 07:59:13;;;;;;;0.30;0.30;;;6.10;99.90;;;;;;5067999;28;20254;-84
2020/12/18 08:01:39;;;;;;;0.10;0.10;;;6.20;99.90;;;;;;5072903;28;20202;-86
2020/12/18 08:04:09;;;;;;;0.50;0.50;;;6.30;99.90;;;;;;5072921;28;20189;-87
2020/12/18 08:06:39;;;;;;;1.23;0.33;;;6.20;99.90;;;;;;5060128;28;20300;-84
2020/12/18 08:09:08;;;;;;;0.07;0.07;;;6.20;99.90;;;;;;5072451;28;20201;-85
2020/12/18 08:11:45;;;;;;;1.30;0.77;;;6.20;99.90;;;;;;5072518;28;20181;-84
2020/12/18 08:14:12;;;;;;;2.93;0.93;;;6.10;99.90;;;;;;5074077;28;20170;-83
2020/12/18 08:16:38;;;;;;;0.50;0.50;;;5.80;99.90;;;;;;5072540;28;20202;-84
2020/12/18 08:19:06;;;;;;;0.20;0.20;;;5.60;99.90;;;;;;5063391;28;20238;-84
2020/12/18 08:21:44;;;;;;;0.30;0.13;;;5.60;99.90;;;;;;5068440;28;20443;-83
2020/12/18 08:24:12;;;;;;;3.13;0.53;;;5.60;99.90;;;;;;5073728;28;20658;-83
2020/12/18 08:26:42;;;;;;;0.23;0.23;;;5.90;99.90;;;;;;5073147;28;20215;-84
2020/12/18 08:29:08;;;;;;;0.70;0.70;;;6.10;99.90;;;;;;5068363;28;20204;-84
2020/12/18 08:31:41;;;;;;;1.40;0.60;;;6.10;99.90;;;;;;5069905;28;20189;-86
2020/12/18 08:34:23;;;;;;;0.17;0.17;;;6.30;99.90;;;;;;5072870;28;20222;-84
2020/12/18 08:36:49;;;;;;;0.50;0.50;;;6.30;99.90;;;;;;5069022;28;20209;-85
2020/12/18 08:39:16;;;;;;;0.67;0.20;;;6.20;99.90;;;;;;5062646;28;20276;-85
2020/12/18 08:41:47;;;;;;;0.20;0.20;;;6.40;99.90;;;;;;5068231;28;20189;-85
2020/12/18 08:44:38;;;;;;;0.23;0.23;;;6.50;99.90;;;;;;5071824;28;20564;-85
2020/12/18 08:47:17;;;;;;;0.33;0.33;;;6.60;99.90;;;;;;5070483;28;20216;-83
2020/12/18 08:49:43;;;;;;;0.70;0.27;;;6.90;99.90;;;;;;5070883;28;20553;-84
2020/12/18 08:52:09;;;;;;;1.43;0.70;;;6.90;99.90;;;;;;5070518;28;20185;-85
2020/12/18 08:54:38;;;;;;;0.70;0.70;;;6.50;99.90;;;;;;5070702;28;20598;-84
2020/12/18 08:57:27;;;;;;;0.60;0.60;;;6.70;99.90;;;;;;5071559;28;20737;-84
2020/12/18 09:00:14;;;;;;;0.50;0.50;;;6.90;99.90;;;;;;5063059;28;20185;-84
2020/12/18 09:02:54;;;;;;;0.73;0.73;;;7.10;99.90;;;;;;5070650;28;20181;-84
2020/12/18 09:05:33;;;;;;;0.73;0.60;;;7.10;99.90;;;;;;5073055;28;20179;-85
2020/12/18 09:08:07;;;;;;;0.40;0.40;;;7.10;99.90;;;;;;5072828;28;20621;-85
2020/12/18 09:10:32;;;;;;;0.10;0.10;;;6.70;99.90;;;;;;5070612;28;20324;-84
2020/12/18 09:13:17;;;;;;;0.50;0.40;;;6.70;99.90;;;;;;5070953;28;20800;-84
2020/12/18 09:15:48;;;;;;;1.07;0.43;;;6.50;99.90;;;;;;5064681;28;20212;-84
2020/12/18 09:18:20;;;;;;;0.23;0.23;;;6.80;99.90;;;;;;5072915;28;20197;-86
2020/12/18 09:20:46;;;;;;;0.50;0.50;;;6.50;99.90;;;;;;5071425;28;20266;-84
2020/12/18 09:23:17;;;;;;;1.67;0.53;;;6.20;99.90;;;;;;5072553;28;20189;-85
2020/12/18 09:25:44;;;;;;;0.83;0.50;;;6.40;99.90;;;;;;5069050;28;20248;-84
2020/12/18 09:28:13;;;;;;;0.73;0.30;;;6.70;99.90;;;;;;5071667;28;20266;-86
2020/12/18 09:30:39;;;;;;;0.50;0.50;;;6.70;99.90;;;;;;5072526;28;20209;-85
2020/12/18 09:33:31;;;;;;;1.07;0.50;;;6.90;99.90;;;;;;5070875;28;20184;-84
2020/12/18 09:36:06;;;;;;;2.90;0.43;;;6.80;99.90;;;;;;5072611;28;20177;-84
2020/12/18 09:38:34;;;;;;;0.77;0.40;;;6.60;99.90;;;;;;5071005;28;20181;-86
2020/12/18 09:41:03;;;;;;;0.47;0.47;;;6.70;99.90;;;;;;5070791;28;20192;-85
2020/12/18 09:43:29;;;;;;;0.30;0.30;;;6.30;99.90;;;;;;5070203;28;20192;-84
2020/12/18 09:46:24;;;;;;;1.30;0.50;;;6.50;99.90;;;;;;5071173;28;20183;-84
2020/12/18 09:48:51;;;;;;;0.20;0.20;;;6.70;99.90;;;;;;5066858;28;20683;-84
2020/12/18 09:51:18;;;;;;;0.43;0.43;;;7.00;99.90;;;;;;5068858;28;20263;-84
2020/12/18 09:53:44;;;;;;;0.30;0.30;;;6.80;99.90;;;;;;5070912;28;20778;-84
2020/12/18 09:56:11;;;;;;;0.90;0.73;;;7.00;99.90;;;;;;5070053;28;20560;-84
2020/12/18 09:58:37;;;;;;;0.13;0.13;;;7.20;99.90;;;;;;5070556;28;20183;-84
2020/12/18 10:01:03;;;;;;;0.53;0.20;;;7.20;99.90;;;;;;5068969;28;20182;-85
2020/12/18 10:03:29;;;;;;;0.20;0.20;;;7.20;99.90;;;;;;5065569;28;20268;-84
2020/12/18 10:05:54;;;;;;;0.20;0.20;;;7.30;99.90;;;;;;5069155;28;20268;-84
2020/12/18 10:08:20;;;;;;;0.30;0.30;;;6.90;99.90;;;;;;5061210;28;20198;-85
2020/12/18 10:10:46;;;;;;;0.77;0.50;;;6.80;99.90;;;;;;5075624;28;20302;-86
2020/12/18 10:13:12;;;;;;;0.40;0.40;;;6.60;99.90;;;;;;5071038;28;20511;-84
2020/12/18 10:15:38;;;;;;;0.63;0.50;;;6.50;99.90;;;;;;5072200;28;20177;-84
2020/12/18 10:18:06;;;;;;;0.70;0.70;;;6.60;99.90;;;;;;5070242;28;20266;-84
2020/12/18 10:20:32;;;;;;;0.63;0.40;;;6.70;99.90;;;;;;5067078;28;20176;-85
2020/12/18 10:22:58;;;;;;;0.53;0.53;;;6.70;99.90;;;;;;5073385;28;20192;-85
2020/12/18 10:25:24;;;;;;;0.30;0.30;;;6.70;99.90;;;;;;5071880;28;20184;-84
2020/12/18 10:27:49;;;;;;;0.10;0.10;;;7.00;99.90;;;;;;5070546;28;20223;-84
2020/12/18 10:30:15;;;;;;;0.90;0.40;;;7.20;99.90;;;;;;5070836;28;20240;-83
2020/12/18 10:32:42;;;;;;;0.67;0.67;;;7.30;99.90;;;;;;5069764;28;20169;-84
2020/12/18 10:35:09;;;;;;;0.10;0.10;;;7.50;99.90;;;;;;5068596;28;20177;-84
2020/12/18 10:37:35;;;;;;;0.30;0.30;;;7.40;99.90;;;;;;5070454;28;20205;-83
2020/12/18 10:40:01;;;;;;;0.87;0.87;;;7.00;99.90;;;;;;5071443;28;20604;-84
2020/12/18 10:42:27;;;;;;;0.43;0.30;;;6.90;99.90;;;;;;5074672;28;20702;-83
2020/12/18 10:44:52;;;;;;;0.77;0.50;;;6.80;99.90;;;;;;5076617;28;20193;-84
2020/12/18 10:47:18;;;;;;;0.40;0.40;;;6.90;99.90;;;;;;5081856;28;20229;-83
2020/12/18 10:49:43;;;;;;;1.77;0.50;;;6.70;99.90;;;;;;5077657;28;20212;-84
2020/12/18 10:52:09;;;;;;;0.60;0.60;;;6.90;99.90;;;;;;5075555;28;20189;-85
2020/12/18 10:54:34;;;;;;;0.53;0.47;;;7.20;99.90;;;;;;5068739;28;20213;-84
2020/12/18 10:57:00;;;;;;;0.00;0.00;;;7.30;99.90;;;;;;5073875;28;20208;-83
2020/12/18 10:59:27;;;;;;;0.50;0.37;;;7.30;99.90;;;;;;5075359;28;20185;-87
2020/12/18 11:01:58;;;;;;;0.30;0.30;;;7.50;99.90;;;;;;5074536;28;20187;-83
2020/12/18 11:04:24;;;;;;;0.00;0.00;;;7.70;99.90;;;;;;5071790;28;20640;-84
2020/12/18 11:06:51;;;;;;;0.37;0.37;;;7.80;99.90;;;;;;5072881;28;20240;-84
2020/12/18 11:09:17;;;;;;;0.70;0.60;;;7.90;99.90;;;;;;5077204;28;20229;-84
2020/12/18 11:11:53;;;;;;;0.23;0.23;;;7.60;99.90;;;;;;5079054;28;20181;-84
2020/12/18 11:14:19;;;;;;;0.20;0.20;;;7.70;99.90;;;;;;5076904;28;20822;-84
2020/12/18 11:16:45;;;;;;;0.30;0.30;;;7.70;99.90;;;;;;5078037;28;20206;-84
2020/12/18 11:19:11;;;;;;;0.80;0.60;;;7.50;99.90;;;;;;5077030;28;20191;-85
2020/12/18 11:21:41;;;;;;;0.67;0.67;;;7.20;99.90;;;;;;5076867;28;20177;-84
2020/12/18 11:24:06;;;;;;;0.83;0.70;;;7.10;99.90;;;;;;5072843;28;20239;-83
2020/12/18 11:26:32;;;;;;;0.50;0.50;;;7.10;99.90;;;;;;5075577;28;20251;-84
2020/12/18 11:28:58;;;;;;;6.10;0.53;;;7.10;99.90;;;;;;5073507;28;20203;-84
2020/12/18 11:31:23;;;;;;;2.00;0.50;;;7.10;99.90;;;;;;5073978;28;20177;-84
2020/12/18 11:33:49;;;;;;;0.77;0.40;;;7.30;99.90;;;;;;5075616;28;20253;-83
2020/12/18 11:36:14;;;;;;;0.33;0.33;;;7.00;99.90;;;;;;5071829;28;20211;-84
2020/12/18 11:38:40;;;;;;;0.57;0.57;;;7.10;99.90;;;;;;5069221;28;20185;-85
2020/12/18 11:41:05;;;;;;;0.97;0.60;;;7.30;99.90;;;;;;5074693;28;20189;-84
2020/12/18 11:43:31;;;;;;;0.37;0.37;;;7.60;99.90;;;;;;5071706;28;20268;-84
2020/12/18 11:45:58;;;;;;;0.50;0.50;;;7.70;99.90;;;;;;5073521;28;20265;-84
2020/12/18 11:48:29;;;;;;;0.20;0.20;;;7.60;99.90;;;;;;5074072;28;20201;-84
2020/12/18 11:50:56;;;;;;;3.47;1.50;;;7.30;99.90;;;;;;5064575;28;20537;-85
2020/12/18 11:53:22;;;;;;;1.07;0.70;;;7.10;99.90;;;;;;5064126;28;20185;-84
2020/12/18 11:55:47;;;;;;;0.70;0.50;;;7.20;99.90;;;;;;5076503;28;20181;-84
2020/12/18 11:58:13;;;;;;;0.20;0.20;;;7.30;99.90;;;;;;5072399;28;20198;-84
2020/12/18 12:00:38;;;;;;;0.67;0.67;;;7.40;99.90;;;;;;5073301;28;20234;-84
2020/12/18 12:03:04;;;;;;;0.40;0.40;;;7.70;99.90;;;;;;5069028;28;20242;-84
2020/12/18 12:05:30;;;;;;;5.20;0.83;;;7.80;99.90;;;;;;5066933;28;20645;-85
2020/12/18 12:07:55;;;;;;;0.93;0.63;;;7.90;99.90;;;;;;5072167;28;20226;-84
2020/12/18 12:10:21;;;;;;;0.40;0.40;;;8.10;99.90;;;;;;5071558;28;20186;-84
2020/12/18 12:12:47;;;;;;;0.30;0.30;;;8.20;99.90;;;;;;5074326;28;20191;-84
2020/12/18 12:15:14;;;;;;;1.30;0.30;;;8.20;99.90;;;;;;5071664;28;20691;-86
2020/12/18 12:17:40;;;;;;;0.63;0.60;;;8.30;99.90;;;;;;5076137;28;20211;-85
2020/12/18 12:20:05;;;;;;;0.47;0.33;;;8.40;99.90;;;;;;5065103;28;20182;-86
2020/12/18 12:22:31;;;;;;;0.60;0.60;;;8.40;99.90;;;;;;5074245;28;20182;-82
2020/12/18 12:24:56;;;;;;;0.67;0.60;;;8.50;99.90;;;;;;5072686;28;20181;-83
2020/12/18 12:27:24;;;;;;;0.50;0.50;;;8.60;99.90;;;;;;5074156;28;20703;-83
2020/12/18 12:29:50;;;;;;;1.53;0.60;;;8.60;99.90;;;;;;5070008;28;20209;-85
2020/12/18 12:32:15;;;;;;;1.70;0.77;;;8.50;99.90;;;;;;5069740;28;20177;-84
2020/12/18 12:34:41;;;;;;;0.60;0.60;;;8.60;99.90;;;;;;5073775;28;20256;-83
2020/12/18 12:37:07;;;;;;;1.00;0.97;;;8.60;99.90;;;;;;5072397;28;20208;-84
2020/12/18 12:39:33;;;;;;;0.23;0.23;;;8.50;99.90;;;;;;5073554;28;20185;-84
2020/12/18 12:42:02;;;;;;;0.47;0.40;;;8.60;99.90;;;;;;5072226;28;20191;-85
2020/12/18 12:44:29;;;;;;;0.97;0.40;;;8.60;99.90;;;;;;5072121;28;20178;-84
2020/12/18 12:46:54;;;;;;;0.60;0.60;;;8.50;99.90;;;;;;5072363;28;20260;-83
2020/12/18 12:49:20;;;;;;;0.47;0.47;;;8.60;99.90;;;;;;5073862;28;20206;-84
2020/12/18 12:51:45;;;;;;;1.77;0.90;;;8.60;99.90;;;;;;5072232;28;20173;-85
2020/12/18 12:54:11;;;;;;;2.63;1.93;;;8.50;99.90;;;;;;5075497;28;20610;-84
2020/12/18 12:56:36;;;;;;;0.53;0.30;;;8.50;99.90;;;;;;5072319;28;21469;-83
2020/12/18 12:59:02;;;;;;;0.73;0.73;;;8.50;99.90;;;;;;5060866;28;20703;-85
2020/12/18 13:01:32;;;;;;;0.37;0.37;;;8.50;99.90;;;;;;5071712;28;20720;-84
2020/12/18 13:03:57;;;;;;;0.30;0.30;;;8.50;99.90;;;;;;5073002;28;20237;-84